Pagina principale
METAR-TAF:

METAR-TAF

Aeroporti :

Aeroporto Internazionale di Baghdad

Baghdad, Iraq

latitudine: 33-15-45N, longitudine: 44-14-04E, altezza: 35 m

Osservazione

Il bollettino è stato emesso 45 minuti fa, alle 17:00 UTC
Vento 5 kt da nord
Temperature 25°C
Umidità 47%
Pressione 1015 hPa
Visibilità: 8000 m

METAR: ORBI 191700Z 01005KT 8000 NSC 25/13 Q1015 NOSIG

Ora: 20:45 (17:45 UTC)

Previsione

Il bollettino è stato emesso 1 ora e 45 minuti fa, alle 16:00 UTC
Previsione valida dal 19 alle 18 UTC al 20 alle 18 UTC
Vento 10 kt da est
Visibilità: 7000 m
Nubi sparse ad un'altezza di 3000 ft
Nuvoloso ad un'altezza di 8000 ft
Temporaneamente
dal 19 alle 18 UTC al 20 alle 15 UTC
rovesci di pioggia
Probabilità 40%
dal 19 alle 22 UTC al 20 alle 03 UTC
Poco nuvoloso ad un'altezza di 2500 ft, Cumulonembo.
temporale, (debole

TAF: ORBI 191600Z 1918/2018 08010KT 7000 SCT030 BKN080 TEMPO 1918/2015 -SHRA PROB40 1922/2003 -TS FEW025CB

Osservazioni e previsioni meteorologiche di più di 4000 aeroporti (messaggi METAR e TAF).

Le stazioni disponibili sono rappresentate dai dischi gialli e rossi sulla carta.

Puntare il mouse per vedere il nome della stazione.

Clicca sopra per visualizzare le osservazioni e previsioni meteorologiche.

Per cambiare la mappa : fare clic sui pulsanti verdi con una croce nera per ingrandire, il pulsante verde con un trattino per diminuire, o sulla freccia verde per le mappe adiacenti.


METAR-TAF: